createdAt,value
2018-08-03T00:00:40.541Z,84.34
2018-08-03T00:03:09.294Z,85.36
2018-08-03T00:05:37.964Z,85.43
2018-08-03T00:08:06.879Z,86.34
2018-08-03T00:10:35.490Z,86.05
2018-08-03T00:13:04.433Z,85.67
2018-08-03T00:15:33.087Z,84.40
2018-08-03T00:18:01.759Z,84.21
2018-08-03T00:20:30.360Z,84.47
2018-08-03T00:22:59.049Z,84.96
2018-08-03T00:25:27.699Z,84.62
2018-08-03T00:27:56.363Z,84.37
2018-08-03T00:30:25.023Z,83.98
2018-08-03T00:32:53.934Z,83.35
2018-08-03T00:35:22.594Z,83.58
2018-08-03T00:37:51.213Z,83.42
2018-08-03T00:40:19.913Z,84.17
2018-08-03T00:42:48.782Z,84.62
2018-08-03T00:45:17.485Z,85.21
2018-08-03T00:47:46.195Z,85.19
2018-08-03T00:50:14.883Z,85.71
2018-08-03T00:52:43.547Z,86.51
2018-08-03T00:55:12.151Z,87.38
2018-08-03T00:57:40.872Z,87.35
2018-08-03T01:00:09.638Z,86.39
2018-08-03T01:02:38.582Z,85.99
2018-08-03T01:05:07.279Z,85.51
2018-08-03T01:07:35.921Z,86.46
2018-08-03T01:10:05.203Z,86.31
2018-08-03T01:12:33.867Z,86.45
2018-08-03T01:15:02.503Z,86.99
2018-08-03T01:17:31.125Z,88.23
2018-08-03T01:19:59.763Z,89.02
2018-08-03T01:22:28.366Z,88.12
2018-08-03T01:24:57.004Z,88.62
2018-08-03T01:27:25.615Z,89.75
2018-08-03T01:29:54.598Z,90.17
2018-08-03T01:32:23.567Z,91.22
2018-08-03T01:34:52.286Z,91.24
2018-08-03T01:37:21.008Z,91.17
2018-08-03T01:39:49.775Z,90.46
2018-08-03T01:42:18.423Z,90.14
2018-08-03T01:44:47.059Z,89.46
2018-08-03T01:47:15.705Z,88.54
2018-08-03T01:49:44.351Z,88.44
2018-08-03T01:52:12.971Z,89.12
2018-08-03T01:54:41.625Z,88.92
2018-08-03T01:57:10.298Z,87.89
2018-08-03T01:59:38.987Z,86.73
2018-08-03T02:02:07.699Z,86.70
2018-08-03T02:04:36.340Z,87.17
2018-08-03T02:07:05.232Z,88.02
2018-08-03T02:09:33.944Z,87.92
2018-08-03T02:12:02.848Z,87.20
2018-08-03T02:14:31.570Z,86.90
2018-08-03T02:17:00.296Z,86.99
2018-08-03T02:19:29.167Z,87.02
2018-08-03T02:21:58.142Z,86.52
2018-08-03T02:24:26.821Z,86.71
2018-08-03T02:26:55.423Z,87.31
2018-08-03T02:29:24.140Z,87.44
2018-08-03T02:31:52.846Z,87.20
2018-08-03T02:34:21.646Z,87.65
2018-08-03T02:36:50.331Z,88.14
2018-08-03T02:39:19.265Z,87.65
2018-08-03T02:41:47.935Z,87.34
2018-08-03T02:44:17.255Z,87.11
2018-08-03T02:46:45.951Z,88.06
2018-08-03T02:49:14.584Z,88.77
2018-08-03T02:51:43.222Z,88.54
2018-08-03T02:54:11.864Z,89.48
2018-08-03T02:56:40.514Z,88.92
2018-08-03T02:59:09.464Z,89.69
2018-08-03T03:01:38.110Z,89.29
2018-08-03T03:04:06.970Z,90.00
2018-08-03T03:06:35.595Z,88.93
2018-08-03T03:09:05.088Z,89.49
2018-08-03T03:11:33.710Z,89.52
2018-08-03T03:14:02.389Z,89.66
2018-08-03T03:16:31.004Z,90.02
2018-08-03T03:18:59.669Z,89.14
2018-08-03T03:21:28.370Z,89.73
2018-08-03T03:23:56.964Z,90.02
2018-08-03T03:26:25.607Z,89.25
2018-08-03T03:28:54.251Z,90.45
2018-08-03T03:31:22.921Z,91.04
2018-08-03T03:33:51.564Z,91.86
2018-08-03T03:36:20.285Z,91.70
2018-08-03T03:38:48.935Z,90.77
2018-08-03T03:41:17.640Z,90.70
2018-08-03T03:43:46.579Z,91.14
2018-08-03T03:46:15.268Z,92.17
2018-08-03T03:48:43.882Z,91.33
2018-08-03T03:51:12.589Z,91.97
2018-08-03T03:53:41.266Z,92.45
2018-08-03T03:56:10.249Z,92.06
2018-08-03T03:58:38.919Z,93.47
2018-08-03T04:01:07.602Z,92.95
2018-08-03T04:03:36.496Z,92.11
2018-08-03T04:06:05.375Z,91.68
2018-08-03T04:08:34.054Z,91.87
2018-08-03T04:11:02.851Z,90.94
2018-08-03T04:13:31.533Z,90.17
2018-08-03T04:16:00.855Z,89.41
2018-08-03T04:18:29.484Z,88.50
2018-08-03T04:20:58.091Z,89.05
2018-08-03T04:23:27.025Z,90.18
2018-08-03T04:25:55.962Z,89.95
2018-08-03T04:28:24.686Z,89.92
2018-08-03T04:30:53.344Z,90.46
2018-08-03T04:33:22.038Z,89.86
2018-08-03T04:35:50.658Z,90.00
2018-08-03T04:38:19.319Z,89.23
2018-08-03T04:40:47.931Z,89.34
2018-08-03T04:43:16.622Z,89.68
2018-08-03T04:45:45.224Z,89.44
2018-08-03T04:48:13.843Z,89.17
2018-08-03T04:50:42.435Z,90.25
2018-08-03T04:53:11.046Z,89.54
2018-08-03T04:55:39.658Z,87.80
2018-08-03T04:58:08.311Z,87.28
2018-08-03T05:00:36.985Z,85.51
2018-08-03T05:03:05.694Z,83.95
2018-08-03T05:05:34.343Z,81.32
2018-08-03T05:08:02.955Z,82.05
2018-08-03T05:10:31.646Z,83.50
2018-08-03T05:13:00.540Z,84.18
2018-08-03T05:15:29.223Z,83.95
2018-08-03T05:17:58.178Z,83.42
2018-08-03T05:20:26.846Z,83.43
2018-08-03T05:22:55.512Z,83.31
2018-08-03T05:25:24.201Z,80.94
2018-08-03T05:27:52.859Z,75.96
2018-08-03T05:30:21.598Z,74.81
2018-08-03T05:32:50.250Z,76.54
2018-08-03T05:35:19.054Z,73.33
2018-08-03T05:37:47.739Z,69.79
2018-08-03T05:40:16.446Z,66.01
2018-08-03T05:42:45.435Z,66.93
2018-08-03T05:45:14.143Z,66.89
2018-08-03T05:47:42.752Z,65.70
2018-08-03T05:50:11.739Z,64.03
2018-08-03T05:52:40.363Z,62.06
2018-08-03T05:55:09.016Z,59.53
2018-08-03T05:57:37.726Z,59.52
2018-08-03T06:00:08.045Z,58.88
2018-08-03T06:02:36.787Z,57.86
2018-08-03T06:05:06.514Z,60.01
2018-08-03T06:07:35.125Z,62.73
2018-08-03T06:10:03.876Z,64.53
2018-08-03T06:12:32.923Z,65.64
2018-08-03T06:15:01.656Z,65.00
2018-08-03T06:17:30.321Z,65.86
2018-08-03T06:19:59.262Z,63.60
2018-08-03T06:22:28.785Z,60.14
2018-08-03T06:24:57.467Z,57.23
2018-08-03T06:27:26.106Z,56.38
2018-08-03T06:29:54.759Z,54.87
2018-08-03T06:32:23.887Z,54.47
2018-08-03T06:34:52.590Z,51.49
2018-08-03T06:37:21.227Z,52.83
2018-08-03T06:39:50.158Z,54.02
2018-08-03T06:42:18.826Z,52.18
2018-08-03T06:44:47.499Z,53.54
2018-08-03T06:47:16.742Z,53.90
2018-08-03T06:49:45.373Z,53.42
2018-08-03T06:52:14.383Z,53.78
2018-08-03T06:54:43.303Z,54.66
2018-08-03T06:57:12.214Z,53.38
2018-08-03T06:59:41.148Z,50.96
2018-08-03T07:02:09.872Z,50.27
2018-08-03T07:04:38.516Z,52.05
2018-08-03T07:07:07.181Z,51.81
2018-08-03T07:09:35.851Z,54.53
2018-08-03T07:12:04.599Z,54.41
2018-08-03T07:14:33.499Z,55.17
2018-08-03T07:17:02.184Z,58.10
2018-08-03T07:19:30.854Z,59.01
2018-08-03T07:21:59.745Z,59.66
2018-08-03T07:24:28.444Z,60.94
2018-08-03T07:26:57.104Z,58.27
2018-08-03T07:29:25.778Z,57.09
2018-08-03T07:31:54.728Z,57.38
2018-08-03T07:34:23.432Z,55.00
2018-08-03T07:36:52.381Z,49.13
2018-08-03T07:39:21.566Z,45.89
2018-08-03T07:41:50.231Z,48.08
2018-08-03T07:44:19.701Z,52.36
2018-08-03T07:46:48.610Z,53.93
2018-08-03T07:49:17.259Z,53.76
2018-08-03T07:51:45.982Z,55.17
2018-08-03T07:54:14.918Z,56.32
2018-08-03T07:56:43.530Z,56.95
2018-08-03T07:59:12.179Z,58.81
2018-08-03T08:01:41.042Z,58.39
2018-08-03T08:04:10.278Z,57.71
2018-08-03T08:06:39.183Z,58.75
2018-08-03T08:09:09.982Z,59.29
2018-08-03T08:11:38.934Z,57.78
2018-08-03T08:14:08.183Z,59.23
2018-08-03T08:16:36.979Z,59.72
2018-08-03T08:19:05.889Z,58.50
2018-08-03T08:21:34.524Z,59.50
2018-08-03T08:24:03.547Z,58.57
2018-08-03T08:26:32.150Z,57.61
2018-08-03T08:29:00.861Z,56.39
2018-08-03T08:31:29.930Z,56.10
2018-08-03T08:33:58.682Z,55.71
2018-08-03T08:36:27.931Z,56.42
2018-08-03T08:38:56.551Z,56.18
2018-08-03T08:41:25.806Z,55.95
2018-08-03T08:43:54.566Z,55.87
2018-08-03T08:46:23.089Z,54.48
2018-08-03T08:48:52.012Z,52.15
2018-08-03T08:51:21.096Z,50.58
2018-08-03T08:53:49.747Z,45.70
2018-08-03T08:56:18.395Z,47.02
2018-08-03T08:58:47.059Z,46.46
2018-08-03T09:01:15.780Z,46.42
2018-08-03T09:03:44.707Z,44.24
2018-08-03T09:06:13.428Z,42.35
2018-08-03T09:08:42.066Z,42.19
2018-08-03T09:11:10.875Z,39.55
2018-08-03T09:13:39.504Z,39.82
2018-08-03T09:16:08.594Z,40.48
2018-08-03T09:18:37.386Z,42.66
2018-08-03T09:21:06.247Z,43.50
2018-08-03T09:23:34.863Z,43.85
2018-08-03T09:26:03.495Z,44.20
2018-08-03T09:28:32.156Z,42.39
2018-08-03T09:31:00.809Z,42.14
2018-08-03T09:33:29.462Z,39.55
2018-08-03T09:35:59.307Z,38.51
2018-08-03T09:38:27.998Z,37.76
2018-08-03T09:40:57.218Z,37.24
2018-08-03T09:43:26.731Z,35.67
2018-08-03T09:45:55.829Z,36.37
2018-08-03T09:48:24.475Z,35.41
2018-08-03T09:50:53.350Z,35.05
2018-08-03T09:53:22.240Z,34.72
2018-08-03T09:55:50.921Z,34.73
2018-08-03T09:58:20.037Z,35.80
2018-08-03T10:00:54.023Z,36.38
2018-08-03T10:03:22.885Z,35.10
2018-08-03T10:05:51.757Z,36.08
2018-08-03T10:08:20.895Z,34.99
2018-08-03T10:10:49.599Z,35.25
2018-08-03T10:13:18.581Z,34.32
2018-08-03T10:15:47.372Z,34.42
2018-08-03T10:18:16.171Z,32.95
2018-08-03T10:20:45.065Z,34.56
2018-08-03T10:23:14.254Z,34.21
2018-08-03T10:25:42.942Z,33.39
2018-08-03T10:28:11.759Z,35.41
2018-08-03T10:30:40.655Z,34.74
2018-08-03T10:33:09.588Z,34.15
2018-08-03T10:35:38.235Z,35.31
2018-08-03T10:38:06.891Z,36.64
2018-08-03T10:40:35.786Z,35.02
2018-08-03T10:43:04.825Z,35.77
2018-08-03T10:45:33.970Z,33.78
2018-08-03T10:48:02.656Z,34.04
2018-08-03T10:50:31.719Z,31.83
2018-08-03T10:53:00.417Z,34.92
2018-08-03T10:55:29.078Z,38.32
2018-08-03T10:57:57.716Z,36.39
2018-08-03T11:00:30.068Z,32.43
2018-08-03T11:02:59.187Z,31.65
2018-08-03T11:05:28.482Z,31.87
2018-08-03T11:07:57.239Z,32.24
2018-08-03T11:10:26.454Z,33.29
2018-08-03T11:12:55.351Z,32.11
2018-08-03T11:15:24.345Z,32.84
2018-08-03T11:17:53.323Z,36.29
2018-08-03T11:20:22.555Z,37.53
2018-08-03T11:22:51.512Z,34.83
2018-08-03T11:25:20.191Z,33.51
2018-08-03T11:27:49.467Z,32.88
2018-08-03T11:30:18.431Z,33.21
2018-08-03T11:32:47.114Z,35.12
2018-08-03T11:35:16.032Z,35.18
2018-08-03T11:37:44.806Z,34.36
2018-08-03T11:40:13.571Z,34.00
2018-08-03T11:42:42.258Z,34.14
2018-08-03T11:45:11.954Z,33.47
2018-08-03T11:47:40.829Z,35.83
2018-08-03T11:50:10.865Z,35.24
2018-08-03T11:52:40.204Z,34.85
2018-08-03T11:55:08.898Z,34.46
2018-08-03T11:57:37.838Z,33.93
2018-08-03T12:00:06.668Z,33.79
2018-08-03T12:02:35.654Z,32.75
2018-08-03T12:05:04.712Z,33.05
2018-08-03T12:07:33.379Z,32.35
2018-08-03T12:10:02.335Z,33.13
2018-08-03T12:12:31.030Z,34.61
2018-08-03T12:14:59.702Z,36.92
2018-08-03T12:17:28.945Z,36.16
2018-08-03T12:19:57.934Z,34.34
2018-08-03T12:22:26.603Z,36.44
2018-08-03T12:24:55.954Z,36.21
2018-08-03T12:27:24.621Z,37.08
2018-08-03T12:29:53.830Z,37.27
2018-08-03T12:32:23.159Z,36.57
2018-08-03T12:34:51.902Z,37.72
2018-08-03T12:37:20.679Z,37.95
2018-08-03T12:39:49.381Z,37.99
2018-08-03T12:42:18.129Z,39.10
2018-08-03T12:44:46.999Z,37.99
2018-08-03T12:47:15.909Z,39.76
2018-08-03T12:49:44.561Z,38.81
2018-08-03T12:52:13.508Z,37.63
2018-08-03T12:54:42.143Z,38.10
2018-08-03T13:07:12.107Z,39.38
2018-08-03T13:09:41.204Z,40.79
2018-08-03T13:12:10.202Z,40.50
2018-08-03T13:14:39.123Z,41.17
2018-08-03T13:17:08.055Z,41.62
2018-08-03T13:19:36.920Z,40.57
2018-08-03T13:22:05.549Z,40.74
2018-08-03T13:24:34.377Z,39.49
2018-08-03T13:27:03.001Z,41.65
2018-08-03T13:29:32.010Z,41.05
2018-08-03T13:32:00.701Z,42.13
2018-08-03T13:34:29.642Z,41.19
2018-08-03T13:36:58.364Z,42.21
2018-08-03T13:39:27.006Z,41.33
2018-08-03T13:41:55.674Z,41.44
2018-08-03T13:44:24.323Z,40.77
2018-08-03T13:46:53.019Z,41.23
2018-08-03T13:49:21.991Z,41.99
2018-08-03T13:51:50.960Z,41.87
2018-08-03T13:54:19.640Z,40.79
2018-08-03T13:56:48.554Z,41.72
2018-08-03T13:59:17.208Z,42.56
2018-08-03T14:01:56.977Z,42.92
2018-08-03T14:04:25.976Z,44.07
2018-08-03T14:06:54.951Z,44.08
2018-08-03T14:09:23.567Z,44.01
2018-08-03T14:11:52.332Z,43.38
2018-08-03T14:14:20.965Z,44.47
2018-08-03T14:16:49.602Z,44.60
2018-08-03T14:19:18.260Z,43.98
2018-08-03T14:21:46.906Z,44.96
2018-08-03T14:24:15.565Z,44.42
2018-08-03T14:26:44.483Z,44.23
2018-08-03T14:29:13.143Z,44.04
2018-08-03T14:31:42.010Z,44.02
2018-08-03T14:34:10.504Z,44.25
2018-08-03T14:36:39.180Z,44.87
2018-08-03T14:39:09.405Z,45.49
2018-08-03T14:41:38.713Z,45.20
2018-08-03T14:44:08.265Z,45.98
2018-08-03T14:46:37.560Z,44.71
2018-08-03T14:49:06.384Z,45.53
2018-08-03T14:51:35.071Z,45.93
2018-08-03T14:54:03.739Z,45.54
2018-08-03T14:56:32.380Z,46.77
2018-08-03T14:59:01.341Z,46.87
2018-08-03T15:01:30.034Z,47.08
2018-08-03T15:03:58.682Z,47.13
2018-08-03T15:06:27.337Z,45.59
2018-08-03T15:08:55.966Z,44.52
2018-08-03T15:11:24.648Z,44.97
2018-08-03T15:13:53.309Z,46.61
2018-08-03T15:16:21.949Z,47.67
2018-08-03T15:18:50.569Z,48.13
2018-08-03T15:21:19.210Z,48.19
2018-08-03T15:23:47.958Z,48.67
2018-08-03T15:26:16.599Z,49.50
2018-08-03T15:28:45.248Z,49.63
2018-08-03T15:31:13.899Z,49.17
2018-08-03T15:33:42.940Z,47.56
2018-08-03T15:36:11.654Z,47.84
2018-08-03T15:38:40.344Z,48.05
2018-08-03T15:41:08.971Z,48.74
2018-08-03T15:43:37.578Z,48.99
2018-08-03T15:46:06.319Z,48.94
2018-08-03T15:48:35.935Z,49.08
2018-08-03T15:51:04.665Z,49.40
2018-08-03T15:53:33.581Z,49.16
2018-08-03T15:56:02.238Z,49.91
2018-08-03T15:58:31.088Z,50.28
2018-08-03T16:01:00.061Z,51.14
2018-08-03T16:03:28.737Z,51.66
2018-08-03T16:05:58.568Z,51.87
2018-08-03T16:08:27.235Z,52.02
2018-08-03T16:10:55.834Z,52.05
2018-08-03T16:13:24.627Z,51.65
2018-08-03T16:15:53.271Z,51.79
2018-08-03T16:18:21.866Z,51.92
2018-08-03T16:20:50.506Z,51.89
2018-08-03T16:23:19.412Z,51.61
2018-08-03T16:25:48.332Z,51.71
2018-08-03T16:28:17.063Z,51.83
2018-08-03T16:30:45.766Z,51.72
2018-08-03T16:33:14.451Z,51.72
2018-08-03T16:35:43.134Z,52.12
2018-08-03T16:38:11.838Z,52.66
2018-08-03T16:40:40.789Z,53.04
2018-08-03T16:43:09.495Z,53.46
2018-08-03T16:45:38.199Z,53.66
2018-08-03T16:48:07.757Z,53.60
2018-08-03T16:50:36.727Z,53.63
2018-08-03T16:53:05.541Z,54.06
2018-08-03T16:55:34.207Z,53.92
2018-08-03T16:58:02.934Z,54.27
2018-08-03T17:00:31.607Z,54.35
2018-08-03T17:03:00.580Z,54.40
2018-08-03T17:05:29.202Z,54.57
2018-08-03T17:07:58.214Z,55.04
2018-08-03T17:10:26.909Z,54.78
2018-08-03T17:12:56.071Z,55.29
2018-08-03T17:15:25.029Z,55.37
2018-08-03T17:17:53.705Z,54.49
2018-08-03T17:20:22.367Z,55.51
2018-08-03T17:22:51.284Z,55.17
2018-08-03T17:25:19.971Z,55.30
2018-08-03T17:27:48.642Z,55.84
2018-08-03T17:30:17.315Z,54.52
2018-08-03T17:32:45.974Z,54.61
2018-08-03T17:35:14.613Z,54.64
2018-08-03T17:37:43.527Z,55.85
2018-08-03T17:40:12.190Z,54.84
2018-08-03T17:42:41.226Z,55.53
2018-08-03T17:45:09.935Z,56.23
2018-08-03T17:47:38.787Z,55.82
2018-08-03T17:50:07.501Z,56.51
2018-08-03T17:52:36.205Z,56.11
2018-08-03T17:55:05.284Z,56.98
2018-08-03T17:57:33.955Z,56.68
2018-08-03T18:00:03.775Z,57.31
2018-08-03T18:02:32.402Z,56.49
2018-08-03T18:05:01.037Z,56.66
2018-08-03T18:07:29.760Z,57.39
2018-08-03T18:09:58.417Z,56.85
2018-08-03T18:12:27.093Z,57.54
2018-08-03T18:14:56.156Z,57.42
2018-08-03T18:17:25.030Z,56.95
2018-08-03T18:19:53.805Z,57.98
2018-08-03T18:22:22.664Z,58.32
2018-08-03T18:24:51.369Z,58.24
2018-08-03T18:27:20.026Z,58.19
2018-08-03T18:29:48.692Z,58.20
2018-08-03T18:32:17.477Z,58.75
2018-08-03T18:34:46.170Z,58.43
2018-08-03T18:37:15.114Z,59.11
2018-08-03T18:39:43.841Z,59.08
2018-08-03T18:42:12.505Z,59.85
2018-08-03T18:44:41.329Z,60.50
2018-08-03T18:47:09.956Z,60.47
2018-08-03T18:49:38.583Z,59.98
2018-08-03T18:52:07.419Z,59.55
2018-08-03T18:54:36.063Z,59.66
2018-08-03T18:57:04.667Z,59.95
2018-08-03T18:59:33.315Z,60.84
2018-08-03T19:02:02.036Z,59.97
2018-08-03T19:04:30.747Z,60.74
2018-08-03T19:06:59.417Z,60.41
2018-08-03T19:09:29.105Z,61.01
2018-08-03T19:11:57.780Z,62.59
2018-08-03T19:14:26.502Z,62.71
2018-08-03T19:16:55.480Z,62.68
2018-08-03T19:19:24.458Z,63.11
2018-08-03T19:21:53.235Z,62.29
2018-08-03T19:24:21.749Z,62.23
2018-08-03T19:26:50.876Z,62.05
2018-08-03T19:29:20.177Z,62.60
2018-08-03T19:31:49.449Z,62.15
2018-08-03T19:34:18.308Z,63.16
2018-08-03T19:36:47.648Z,64.95
2018-08-03T19:39:16.582Z,64.73
2018-08-03T19:41:45.900Z,63.29
2018-08-03T19:44:15.222Z,64.47
2018-08-03T19:46:44.534Z,64.16
2018-08-03T19:49:13.880Z,64.24
2018-08-03T19:51:43.117Z,64.23
2018-08-03T19:54:11.798Z,64.62
2018-08-03T19:56:40.505Z,63.30
2018-08-03T19:59:09.334Z,63.17
2018-08-03T20:01:38.142Z,64.63
2018-08-03T20:04:07.246Z,65.11
2018-08-03T20:06:36.084Z,65.45
2018-08-03T20:09:08.088Z,65.02
2018-08-03T20:11:36.811Z,65.39
2018-08-03T20:14:05.495Z,65.73
2018-08-03T20:16:34.176Z,64.79
2018-08-03T20:19:02.846Z,65.35
2018-08-03T20:21:31.875Z,65.63
2018-08-03T20:24:00.563Z,65.61
2018-08-03T20:26:29.257Z,65.69
2018-08-03T20:28:57.894Z,66.27
2018-08-03T20:31:26.602Z,65.69
2018-08-03T20:33:55.546Z,65.96
2018-08-03T20:36:24.159Z,66.03
2018-08-03T20:38:52.821Z,66.31
2018-08-03T20:41:21.463Z,65.12
2018-08-03T20:43:50.104Z,66.38
2018-08-03T20:46:18.964Z,65.83
2018-08-03T20:48:47.567Z,66.39
2018-08-03T20:51:16.234Z,66.26
2018-08-03T20:53:45.086Z,67.46
2018-08-03T20:56:13.718Z,67.86
2018-08-03T20:58:42.339Z,68.40
2018-08-03T21:01:10.975Z,68.92
2018-08-03T21:03:39.650Z,68.94
2018-08-03T21:06:08.635Z,69.02
2018-08-03T21:08:37.383Z,67.81
2018-08-03T21:11:06.054Z,68.36
2018-08-03T21:13:34.743Z,67.94
2018-08-03T21:16:03.351Z,68.51
2018-08-03T21:18:31.990Z,67.50
2018-08-03T21:21:00.643Z,67.43
2018-08-03T21:23:29.359Z,67.80
2018-08-03T21:25:58.054Z,67.13
2018-08-03T21:28:26.694Z,67.15
2018-08-03T21:30:55.483Z,68.37
2018-08-03T21:33:24.123Z,68.16
2018-08-03T21:35:52.791Z,67.81
2018-08-03T21:38:21.402Z,68.10
2018-08-03T21:40:50.075Z,68.56
2018-08-03T21:43:18.794Z,69.12
2018-08-03T21:45:47.654Z,69.44
2018-08-03T21:48:16.310Z,69.42
2018-08-03T21:50:44.967Z,68.98
2018-08-03T21:53:13.623Z,70.20
2018-08-03T21:55:42.225Z,70.45
2018-08-03T21:58:11.365Z,71.82
2018-08-03T22:00:40.108Z,73.17
2018-08-03T22:03:08.770Z,73.58
2018-08-03T22:05:37.493Z,75.23
2018-08-03T22:08:06.229Z,75.94
2018-08-03T22:10:34.851Z,76.79
2018-08-03T22:13:03.536Z,77.98
2018-08-03T22:15:32.237Z,77.82
2018-08-03T22:18:01.064Z,79.04
2018-08-03T22:20:30.010Z,79.12
2018-08-03T22:22:58.694Z,79.72
2018-08-03T22:25:27.515Z,79.82
2018-08-03T22:27:56.194Z,79.73
2018-08-03T22:30:24.798Z,80.88
2018-08-03T22:32:53.542Z,80.96
2018-08-03T22:35:22.146Z,81.74
2018-08-03T22:37:51.106Z,82.22
2018-08-03T22:40:19.832Z,82.05
2018-08-03T22:42:48.538Z,81.89
2018-08-03T22:45:17.205Z,82.51
2018-08-03T22:47:45.829Z,81.55
2018-08-03T22:50:14.499Z,81.72
2018-08-03T22:52:43.202Z,82.04
2018-08-03T22:55:12.146Z,81.44
2018-08-03T22:57:40.855Z,80.99
2018-08-03T23:00:10.104Z,80.95
2018-08-03T23:02:39.011Z,80.58
2018-08-03T23:05:07.639Z,81.04
2018-08-03T23:07:36.301Z,80.92
2018-08-03T23:10:05.822Z,81.29
2018-08-03T23:12:34.423Z,81.38
2018-08-03T23:15:03.100Z,81.21
2018-08-03T23:17:31.758Z,80.41
2018-08-03T23:20:00.475Z,80.89
2018-08-03T23:22:29.135Z,80.60
2018-08-03T23:24:57.803Z,81.15
2018-08-03T23:27:26.445Z,81.37
2018-08-03T23:29:55.339Z,80.96
2018-08-03T23:32:24.931Z,80.90
2018-08-03T23:34:53.606Z,81.27
2018-08-03T23:37:22.264Z,80.85
2018-08-03T23:39:50.935Z,81.40
2018-08-03T23:42:19.900Z,80.79
2018-08-03T23:44:48.544Z,80.87
2018-08-03T23:47:17.580Z,80.54
2018-08-03T23:49:46.576Z,80.51
2018-08-03T23:52:15.446Z,80.99
2018-08-03T23:54:44.122Z,80.29
2018-08-03T23:57:12.856Z,80.38
2018-08-03T23:59:41.614Z,81.10
